Time;durP1;ratioP1;P1;durP2;ratioP2;P2;SDS_P1;SDS_P2;PMS_P1;PMS_P2;Temp;Humidity;BMP_temperature;BMP_pressure;BME280_temperature;BME280_humidity;BME280_pressure;Samples;Min_cycle;Max_cycle;Signal;HPM_P1;HPM_P2
2024/01/30 00:00:31;;;;;;;39.80;15.60;;;;;;;2.77;78.30;100734.52;107595;1308;22249;-46
2024/01/30 00:02:57;;;;;;;31.80;13.70;;;;;;;2.75;78.24;100734.52;107836;1308;22938;-45
2024/01/30 00:05:22;;;;;;;29.70;14.50;;;;;;;2.74;77.56;100729.84;107791;1290;22225;-47
2024/01/30 00:07:47;;;;;;;34.20;14.30;;;;;;;2.74;78.24;100729.49;107808;1308;22539;-44
2024/01/30 00:10:13;;;;;;;32.40;14.10;;;;;;;2.74;78.59;100732.27;107789;1308;22268;-46
2024/01/30 00:12:38;;;;;;;29.10;13.50;;;;;;;2.74;78.41;100734.86;107800;1290;22262;-45
2024/01/30 00:15:04;;;;;;;30.40;13.70;;;;;;;2.70;77.75;100733.98;107791;1290;23034;-46
2024/01/30 00:17:30;;;;;;;34.30;14.30;;;;;;;2.71;77.98;100735.38;107792;1289;22323;-46
2024/01/30 00:19:55;;;;;;;29.40;14.20;;;;;;;2.73;78.26;100732.60;107791;1308;22232;-44
2024/01/30 00:22:20;;;;;;;33.70;15.80;;;;;;;2.72;78.13;100732.61;107784;1289;22391;-47
2024/01/30 00:24:46;;;;;;;35.20;14.90;;;;;;;2.71;77.62;100730.18;107780;1289;23001;-45
2024/01/30 00:27:11;;;;;;;32.10;14.10;;;;;;;2.71;77.80;100731.92;107792;1289;22240;-45
2024/01/30 00:29:36;;;;;;;30.80;14.40;;;;;;;2.72;77.87;100732.09;107808;1285;22363;-45
2024/01/30 00:32:02;;;;;;;28.90;13.30;;;;;;;2.70;77.98;100727.06;107801;1290;22423;-45
2024/01/30 00:34:27;;;;;;;29.90;13.00;;;;;;;2.66;77.61;100727.94;107786;1291;22434;-46
2024/01/30 00:36:52;;;;;;;35.50;14.40;;;;;;;2.65;77.61;100729.84;107775;1308;22266;-46
2024/01/30 00:39:19;;;;;;;30.00;13.60;;;;;;;2.61;77.66;100726.89;107784;1308;22430;-46
2024/01/30 00:41:45;;;;;;;36.20;15.00;;;;;;;2.57;77.11;100728.62;107805;1288;22263;-48
2024/01/30 00:44:10;;;;;;;33.20;13.20;;;;;;;2.59;77.57;100726.19;107797;1308;22271;-47
2024/01/30 00:46:35;;;;;;;27.70;12.70;;;;;;;2.58;77.64;100719.27;107823;1288;22978;-45
2024/01/30 00:49:00;;;;;;;26.70;13.70;;;;;;;2.57;77.66;100718.75;107804;1284;22165;-48
2024/01/30 00:51:26;;;;;;;32.90;14.10;;;;;;;2.56;77.87;100720.66;107797;1289;22437;-47
2024/01/30 00:53:51;;;;;;;30.30;13.30;;;;;;;2.52;77.65;100720.48;107825;1291;22681;-45
2024/01/30 00:56:18;;;;;;;28.60;12.90;;;;;;;2.50;77.60;100722.39;107824;1308;22432;-48
2024/01/30 00:58:43;;;;;;;32.60;13.30;;;;;;;2.51;77.90;100713.91;107801;1308;22242;-47
2024/01/30 01:01:09;;;;;;;31.20;13.10;;;;;;;2.51;78.09;100715.64;107591;1308;22286;-44
2024/01/30 01:03:34;;;;;;;30.90;14.20;;;;;;;2.48;77.60;100711.48;107572;1287;22631;-44
2024/01/30 01:05:59;;;;;;;35.50;12.60;;;;;;;2.47;77.78;100710.61;107806;1288;22261;-45
2024/01/30 01:08:25;;;;;;;29.30;13.60;;;;;;;2.44;77.61;100705.25;107790;1291;22270;-46
2024/01/30 01:10:50;;;;;;;28.50;13.40;;;;;;;2.42;77.62;100705.77;107796;1291;23002;-46
2024/01/30 01:13:16;;;;;;;25.50;12.00;;;;;;;2.41;77.56;100703.34;107799;1308;22221;-46
2024/01/30 01:15:41;;;;;;;38.60;13.20;;;;;;;2.40;77.76;100704.89;107558;1298;22358;-44
2024/01/30 01:18:06;;;;;;;30.30;12.50;;;;;;;2.40;77.89;100704.20;107806;1308;22265;-45
2024/01/30 01:20:31;;;;;;;28.40;11.30;;;;;;;2.36;77.87;100699.02;107789;1290;22335;-45
2024/01/30 01:22:57;;;;;;;26.20;11.40;;;;;;;2.32;77.78;100697.63;107803;1284;22290;-45
2024/01/30 01:25:22;;;;;;;29.50;11.70;;;;;;;2.34;78.20;100693.30;107784;1284;22282;-46
2024/01/30 01:27:51;;;;;;;23.20;11.40;;;;;;;2.31;77.92;100697.80;107759;1308;22274;-45
2024/01/30 01:30:21;;;;;;;26.50;11.00;;;;;;;2.30;77.93;100699.34;107811;1289;22334;-46
2024/01/30 01:32:56;;;;;;;29.20;11.40;;;;;;;2.29;78.09;100696.92;107796;1291;22317;-48
2024/01/30 01:35:24;;;;;;;25.80;11.40;;;;;;;2.29;78.50;100700.05;107813;1291;23319;-45
2024/01/30 01:37:54;;;;;;;22.10;11.10;;;;;;;2.29;78.44;100697.62;107800;1308;22379;-46
2024/01/30 01:40:21;;;;;;;24.20;10.60;;;;;;;2.26;78.38;100704.20;107792;1291;23122;-47
2024/01/30 01:42:46;;;;;;;24.70;11.00;;;;;;;2.24;78.57;100702.63;107817;1291;22226;-47
2024/01/30 01:45:12;;;;;;;26.00;10.70;;;;;;;2.24;78.53;100703.84;107795;1308;22532;-48
2024/01/30 01:47:37;;;;;;;26.70;10.60;;;;;;;2.21;78.51;100703.66;107783;1285;22443;-49
2024/01/30 01:50:03;;;;;;;25.00;11.50;;;;;;;2.23;78.56;100708.34;107796;1308;22262;-49
2024/01/30 01:52:28;;;;;;;27.00;11.90;;;;;;;2.21;78.72;100705.56;107847;1291;22453;-44
2024/01/30 01:54:54;;;;;;;24.50;10.50;;;;;;;2.20;78.84;100704.70;107796;1301;22408;-47
2024/01/30 01:57:19;;;;;;;24.00;10.50;;;;;;;2.19;79.06;100695.70;107814;1308;22413;-46
2024/01/30 01:59:44;;;;;;;27.50;10.50;;;;;;;2.18;79.05;100696.56;107789;1289;22181;-46
2024/01/30 02:02:12;;;;;;;21.70;11.00;;;;;;;2.16;79.12;100703.83;107808;1285;22316;-45
2024/01/30 02:04:38;;;;;;;30.10;11.60;;;;;;;2.15;79.08;100701.92;107783;1291;22965;-46
2024/01/30 02:07:03;;;;;;;24.30;10.20;;;;;;;2.14;79.21;100701.75;107782;1308;23289;-45
2024/01/30 02:09:28;;;;;;;20.30;9.90;;;;;;;2.13;79.35;100701.76;107780;1308;23325;-45
2024/01/30 02:11:55;;;;;;;19.80;9.60;;;;;;;2.14;79.78;100703.98;107777;1308;22237;-46
2024/01/30 02:14:20;;;;;;;26.80;10.80;;;;;;;2.10;79.70;100701.91;107810;1308;22216;-48
2024/01/30 02:16:45;;;;;;;22.90;11.40;;;;;;;2.11;79.69;100696.73;107813;1308;22611;-47
2024/01/30 02:19:11;;;;;;;20.10;10.00;;;;;;;2.07;79.75;100697.59;107793;1291;23076;-48
2024/01/30 02:21:36;;;;;;;32.40;10.80;;;;;;;2.06;79.80;100700.17;107783;1288;22357;-45
2024/01/30 02:24:03;;;;;;;23.90;11.10;;;;;;;2.06;80.29;100701.20;107776;1291;22249;-44
2024/01/30 02:26:28;;;;;;;20.90;9.90;;;;;;;2.06;80.05;100702.77;107805;1308;23242;-44
2024/01/30 02:28:54;;;;;;;23.20;9.70;;;;;;;2.02;79.96;100702.42;107775;1308;22414;-44
2024/01/30 02:31:19;;;;;;;22.00;9.50;;;;;;;2.02;80.02;100700.52;107800;1285;22411;-45
2024/01/30 02:33:44;;;;;;;27.40;9.90;;;;;;;2.01;80.00;100700.16;107816;1290;22347;-44
2024/01/30 02:36:09;;;;;;;26.10;10.40;;;;;;;2.02;80.15;100698.09;107800;1289;22396;-44
2024/01/30 02:38:35;;;;;;;20.50;10.40;;;;;;;2.03;80.11;100697.23;107797;1290;22262;-45
2024/01/30 02:43:58;;;;;;;26.90;10.60;;;;;;;2.06;80.49;100701.73;107572;1299;557751;-44
2024/01/30 02:46:23;;;;;;;21.60;8.90;;;;;;;2.02;80.31;100694.80;107899;1295;22494;-45
2024/01/30 02:48:48;;;;;;;24.30;9.80;;;;;;;1.99;80.38;100687.88;107915;1284;22273;-47
2024/01/30 02:51:13;;;;;;;21.80;9.40;;;;;;;1.98;80.44;100689.60;107895;1288;22518;-47
2024/01/30 02:53:39;;;;;;;22.40;9.70;;;;;;;1.99;80.50;100686.33;107905;1307;23178;-44
2024/01/30 02:56:05;;;;;;;22.80;9.60;;;;;;;2.01;80.53;100690.31;107882;1288;22262;-46
2024/01/30 02:58:31;;;;;;;22.30;8.90;;;;;;;1.99;80.65;100688.23;108078;1304;22958;-44
2024/01/30 03:00:56;;;;;;;20.00;8.70;;;;;;;1.99;80.59;100690.13;108161;1304;22349;-44
2024/01/30 03:03:21;;;;;;;19.00;8.60;;;;;;;1.98;80.65;100692.03;108191;1295;22606;-46
2024/01/30 03:05:47;;;;;;;20.90;9.50;;;;;;;1.99;80.68;100688.56;108200;1291;22360;-44
2024/01/30 03:08:12;;;;;;;21.90;9.10;;;;;;;1.97;80.69;100696.35;108191;1285;22204;-47
2024/01/30 03:10:37;;;;;;;16.90;7.90;;;;;;;1.97;80.78;100697.04;108200;1282;22264;-47
2024/01/30 03:13:03;;;;;;;16.90;7.60;;;;;;;1.96;80.76;100693.06;108199;1304;22259;-45
2024/01/30 03:15:28;;;;;;;15.20;8.30;;;;;;;1.93;80.90;100692.70;108173;1282;22378;-44
2024/01/30 03:17:53;;;;;;;20.90;8.60;;;;;;;1.95;81.10;100696.52;108199;1287;22254;-44
2024/01/30 03:20:19;;;;;;;17.60;8.50;;;;;;;1.94;80.94;100696.86;108161;1304;22266;-44
2024/01/30 03:22:44;;;;;;;22.30;8.40;;;;;;;1.94;81.01;100699.45;108194;1286;22442;-46
2024/01/30 03:25:10;;;;;;;17.50;8.10;;;;;;;1.91;81.19;100698.77;108182;1304;22298;-44
2024/01/30 03:27:35;;;;;;;20.90;8.40;;;;;;;1.92;81.09;100699.61;108166;1304;22334;-45
2024/01/30 03:30:01;;;;;;;20.00;8.10;;;;;;;1.91;81.43;100695.30;108188;1284;22291;-47
2024/01/30 03:32:26;;;;;;;18.60;8.30;;;;;;;1.89;81.60;100696.67;108177;1283;22484;-44
2024/01/30 03:34:51;;;;;;;15.40;8.20;;;;;;;1.90;81.37;100693.23;108145;1304;24308;-44
2024/01/30 03:37:16;;;;;;;20.80;7.80;;;;;;;1.88;81.38;100691.14;108161;1304;22267;-47
2024/01/30 03:39:42;;;;;;;18.50;8.00;;;;;;;1.85;81.57;100686.98;108204;1281;23106;-46
2024/01/30 03:42:07;;;;;;;17.30;8.20;;;;;;;1.83;81.74;100689.40;108188;1286;22437;-46
2024/01/30 03:44:32;;;;;;;21.40;8.70;;;;;;;1.83;81.84;100685.42;108212;1287;22236;-45
2024/01/30 03:46:57;;;;;;;18.30;8.70;;;;;;;1.81;82.13;100677.48;108174;1286;22335;-45
2024/01/30 03:49:23;;;;;;;15.50;7.70;;;;;;;1.79;82.27;100677.45;108168;1304;23430;-45
2024/01/30 03:51:48;;;;;;;19.50;8.40;;;;;;;1.78;82.40;100677.11;108199;1282;22411;-44
2024/01/30 03:54:13;;;;;;;16.90;8.40;;;;;;;1.78;82.60;100676.23;108174;1282;22247;-45
2024/01/30 03:56:39;;;;;;;21.30;8.30;;;;;;;1.79;82.61;100678.31;108170;1281;22236;-45
2024/01/30 03:59:04;;;;;;;15.00;7.50;;;;;;;1.79;82.53;100682.45;108174;1297;22460;-44
2024/01/30 04:01:29;;;;;;;19.90;7.40;;;;;;;1.79;82.47;100680.73;108160;1305;22524;-45
2024/01/30 04:03:55;;;;;;;17.90;7.50;;;;;;;1.80;82.55;100683.33;108148;1302;22241;-45
2024/01/30 04:06:20;;;;;;;15.50;7.60;;;;;;;1.79;82.65;100683.50;108177;1281;22255;-47
2024/01/30 04:08:45;;;;;;;13.10;6.70;;;;;;;1.77;82.78;100680.21;108178;1305;22325;-48
2024/01/30 04:11:10;;;;;;;15.10;6.80;;;;;;;1.78;82.72;100678.66;108178;1285;22438;-45
2024/01/30 04:13:36;;;;;;;12.40;6.20;;;;;;;1.79;82.77;100680.73;108160;1304;22394;-47
2024/01/30 04:16:02;;;;;;;15.20;7.50;;;;;;;1.78;82.82;100678.83;108171;1285;22547;-45
2024/01/30 04:18:27;;;;;;;15.90;8.40;;;;;;;1.77;82.87;100679.70;107931;1305;22360;-46
2024/01/30 04:20:53;;;;;;;16.30;6.40;;;;;;;1.77;82.84;100676.59;108178;1287;22417;-45
2024/01/30 04:23:18;;;;;;;12.00;6.20;;;;;;;1.78;82.81;100676.92;108171;1286;22416;-46
2024/01/30 04:25:43;;;;;;;13.50;7.00;;;;;;;1.79;82.99;100672.97;108171;1305;23047;-47
2024/01/30 04:28:11;;;;;;;15.90;6.10;;;;;;;1.80;82.90;100672.27;108184;1282;22501;-45
2024/01/30 04:30:37;;;;;;;13.90;6.30;;;;;;;1.77;83.02;100675.02;108164;1287;23310;-47
2024/01/30 04:33:03;;;;;;;16.00;7.20;;;;;;;1.73;83.34;100677.77;108173;1286;22253;-45
2024/01/30 04:35:28;;;;;;;16.80;6.90;;;;;;;1.70;83.52;100677.41;108183;1298;22483;-47
2024/01/30 04:37:53;;;;;;;19.00;7.70;;;;;;;1.67;83.79;100677.07;108148;1285;22307;-45
2024/01/30 04:40:20;;;;;;;16.10;6.90;;;;;;;1.68;83.68;100678.80;108167;1284;22480;-45
2024/01/30 04:42:45;;;;;;;12.50;7.10;;;;;;;1.69;83.81;100678.62;108176;1285;22314;-47
2024/01/30 04:45:10;;;;;;;14.50;7.10;;;;;;;1.66;83.84;100677.93;108149;1285;23212;-45
2024/01/30 04:47:36;;;;;;;12.50;6.50;;;;;;;1.66;83.96;100675.34;108169;1282;22233;-45
2024/01/30 04:50:03;;;;;;;17.80;7.60;;;;;;;1.67;83.98;100674.14;108169;1286;22271;-45
2024/01/30 04:52:30;;;;;;;17.40;7.60;;;;;;;1.67;83.83;100674.14;108187;1282;22418;-45
2024/01/30 04:54:55;;;;;;;16.60;7.40;;;;;;;1.67;84.03;100675.86;108166;1281;23215;-46
2024/01/30 04:57:20;;;;;;;14.20;6.50;;;;;;;1.67;84.15;100676.23;108149;1281;22622;-45
2024/01/30 04:59:45;;;;;;;16.30;7.80;;;;;;;1.70;84.12;100679.16;108153;1285;22485;-44
2024/01/30 05:02:11;;;;;;;20.20;8.70;;;;;;;1.72;84.03;100677.77;108182;1285;23676;-45
2024/01/30 05:04:36;;;;;;;19.20;7.80;;;;;;;1.73;84.12;100677.27;108137;1305;22247;-45
2024/01/30 05:07:01;;;;;;;15.90;7.10;;;;;;;1.72;84.21;100677.42;108151;1286;22439;-49
2024/01/30 05:09:26;;;;;;;20.80;8.60;;;;;;;1.70;84.10;100679.15;108149;1285;23552;-44
2024/01/30 05:11:52;;;;;;;17.50;8.80;;;;;;;1.69;84.28;100681.91;108166;1291;23186;-48
2024/01/30 05:14:17;;;;;;;18.20;8.90;;;;;;;1.69;84.35;100686.06;108164;1282;23032;-48
2024/01/30 05:16:46;;;;;;;21.40;8.80;;;;;;;1.71;84.33;100686.59;108175;1304;22315;-48
2024/01/30 05:19:12;;;;;;;20.00;8.90;;;;;;;1.71;84.49;100687.29;108169;1281;23070;-45
2024/01/30 05:21:37;;;;;;;20.00;7.80;;;;;;;1.69;84.40;100682.96;108142;1285;23262;-45
2024/01/30 05:24:02;;;;;;;18.40;8.40;;;;;;;1.70;84.54;100680.89;108150;1304;22260;-45
2024/01/30 05:26:28;;;;;;;19.10;8.30;;;;;;;1.67;84.54;100680.71;108146;1289;22763;-47
2024/01/30 05:28:53;;;;;;;17.70;8.50;;;;;;;1.68;84.53;100682.95;108137;1282;22705;-47
2024/01/30 05:31:18;;;;;;;18.10;8.40;;;;;;;1.68;84.75;100682.77;108151;1286;22503;-46
2024/01/30 05:33:43;;;;;;;17.40;7.30;;;;;;;1.68;84.54;100683.98;108154;1285;22873;-45
